Time;durP1;ratioP1;P1;durP2;ratioP2;P2;SDS_P1;SDS_P2;PMS_P1;PMS_P2;Temp;Humidity;BMP_temperature;BMP_pressure;BME280_temperature;BME280_humidity;BME280_pressure;Samples;Min_cycle;Max_cycle;Signal;HPM_P1;HPM_P2
2021/12/28 00:03:56;;;;;;;15.20;3.30;;;;;;;;;;21078108;28;20050;-68
2021/12/28 00:14:01;;;;;;;14.30;4.43;;;;;;;;;;21077732;28;20052;-70
2021/12/28 00:24:04;;;;;;;15.60;3.35;;;;;;;;;;21077228;28;20059;-70
2021/12/28 00:34:07;;;;;;;12.35;3.10;;;;;;;;;;21076730;28;20044;-71
2021/12/28 00:44:09;;;;;;;13.10;2.83;;;;;;;;;;21076302;28;20059;-73
2021/12/28 00:54:11;;;;;;;16.52;3.50;;;;;;;;;;21076498;28;20510;-63
2021/12/28 01:04:13;;;;;;;12.85;3.33;;;;;;;;;;21089481;28;20181;-72
2021/12/28 01:14:15;;;;;;;12.90;3.28;;;;;;;;;;21091465;28;20074;-72
2021/12/28 01:24:18;;;;;;;14.45;3.63;;;;;;;;;;21091820;28;20102;-73
2021/12/28 01:34:20;;;;;;;8.88;2.35;;;;;;;;;;21090692;28;20562;-72
2021/12/28 01:44:23;;;;;;;16.23;3.30;;;;;;;;;;21088478;28;20382;-73
2021/12/28 01:54:26;;;;;;;12.55;2.80;;;;;;;;;;21087160;28;20057;-74
2021/12/28 02:04:29;;;;;;;17.33;2.95;;;;;;;;;;21092183;28;20138;-71
2021/12/28 02:14:31;;;;;;;10.70;2.60;;;;;;;;;;21085839;28;20466;-74
2021/12/28 02:24:34;;;;;;;11.65;2.35;;;;;;;;;;21086227;28;20418;-72
2021/12/28 02:34:36;;;;;;;10.68;2.58;;;;;;;;;;21084845;28;20131;-74
2021/12/28 02:44:38;;;;;;;11.30;2.63;;;;;;;;;;21083459;28;20059;-70
2021/12/28 02:54:40;;;;;;;8.00;2.35;;;;;;;;;;21081975;28;20059;-73
2021/12/28 03:04:42;;;;;;;15.05;3.75;;;;;;;;;;21082101;28;20056;-67
2021/12/28 03:14:47;;;;;;;13.15;2.30;;;;;;;;;;21082888;28;20054;-72
2021/12/28 03:24:53;;;;;;;5.78;2.03;;;;;;;;;;21080900;28;20071;-68
2021/12/28 03:34:56;;;;;;;12.32;2.20;;;;;;;;;;21081575;28;20051;-66
2021/12/28 03:45:00;;;;;;;15.65;2.55;;;;;;;;;;21079716;28;20462;-70
2021/12/28 03:55:02;;;;;;;12.40;2.22;;;;;;;;;;21079855;28;20052;-62
2021/12/28 04:05:05;;;;;;;10.68;2.83;;;;;;;;;;21078257;28;21059;-72
2021/12/28 04:15:10;;;;;;;9.32;2.72;;;;;;;;;;21079418;28;20401;-72
2021/12/28 04:25:17;;;;;;;10.73;2.90;;;;;;;;;;21088874;28;20056;-72
2021/12/28 04:35:20;;;;;;;10.32;2.33;;;;;;;;;;21088842;28;20097;-70
2021/12/28 04:45:25;;;;;;;13.00;2.30;;;;;;;;;;21092686;28;20478;-72
2021/12/28 04:55:28;;;;;;;12.77;2.72;;;;;;;;;;21091586;28;20098;-70
2021/12/28 05:05:30;;;;;;;17.85;2.72;;;;;;;;;;21091183;28;20044;-71
2021/12/28 05:15:33;;;;;;;12.63;2.40;;;;;;;;;;21090586;28;20092;-71
2021/12/28 05:25:36;;;;;;;10.57;2.60;;;;;;;;;;21090903;28;20056;-73
2021/12/28 05:35:38;;;;;;;11.52;2.50;;;;;;;;;;21089149;28;20383;-72
2021/12/28 05:45:42;;;;;;;10.82;2.92;;;;;;;;;;21088233;28;20047;-68
2021/12/28 05:55:45;;;;;;;18.30;2.78;;;;;;;;;;21088802;28;20052;-71
2021/12/28 06:05:47;;;;;;;11.05;2.67;;;;;;;;;;21086663;28;20056;-72
2021/12/28 06:15:49;;;;;;;13.32;3.10;;;;;;;;;;21086642;28;20095;-72
2021/12/28 06:25:51;;;;;;;13.60;3.92;;;;;;;;;;21067906;28;20087;-72
2021/12/28 06:35:54;;;;;;;17.63;4.20;;;;;;;;;;21085117;28;20129;-74
2021/12/28 06:45:56;;;;;;;14.10;2.95;;;;;;;;;;21083611;28;20056;-70
2021/12/28 06:55:59;;;;;;;11.40;2.53;;;;;;;;;;21081925;28;20104;-73
2021/12/28 07:06:02;;;;;;;18.00;2.80;;;;;;;;;;21102493;28;20086;-73
2021/12/28 07:16:04;;;;;;;8.18;2.88;;;;;;;;;;21081857;28;20048;-72
2021/12/28 07:26:07;;;;;;;16.42;3.70;;;;;;;;;;21080603;28;20059;-72
2021/12/28 07:36:09;;;;;;;13.73;3.38;;;;;;;;;;21079752;28;20391;-72
2021/12/28 07:46:11;;;;;;;14.35;3.40;;;;;;;;;;21079370;28;20083;-72
2021/12/28 07:56:14;;;;;;;13.40;3.70;;;;;;;;;;21078656;28;20084;-74
2021/12/28 08:06:16;;;;;;;17.67;4.82;;;;;;;;;;21084025;28;20486;-72
2021/12/28 08:16:19;;;;;;;14.70;4.93;;;;;;;;;;21106262;28;20131;-71
2021/12/28 08:26:21;;;;;;;11.27;4.10;;;;;;;;;;21104966;28;20130;-71
2021/12/28 08:36:24;;;;;;;20.15;4.13;;;;;;;;;;21103668;28;20051;-74
2021/12/28 08:46:27;;;;;;;15.00;4.75;;;;;;;;;;21103870;28;20048;-70
2021/12/28 08:56:29;;;;;;;17.83;4.05;;;;;;;;;;21103726;28;20524;-73
2021/12/28 09:06:31;;;;;;;10.25;3.80;;;;;;;;;;21104040;28;20131;-73
2021/12/28 09:16:33;;;;;;;14.40;3.50;;;;;;;;;;21102754;28;20052;-71
2021/12/28 09:26:36;;;;;;;14.77;3.72;;;;;;;;;;21090159;28;20043;-72
2021/12/28 09:36:40;;;;;;;13.45;3.13;;;;;;;;;;21091586;28;20105;-69
2021/12/28 09:46:46;;;;;;;10.98;3.20;;;;;;;;;;21088755;28;20087;-72
2021/12/28 09:56:49;;;;;;;14.73;3.85;;;;;;;;;;21100052;28;20537;-72
2021/12/28 10:06:51;;;;;;;10.13;3.33;;;;;;;;;;21087136;28;20079;-73
2021/12/28 10:16:58;;;;;;;14.75;3.67;;;;;;;;;;21085736;28;20402;-72
2021/12/28 10:27:17;;;;;;;14.45;4.47;;;;;;;;;;21085109;28;20080;-72
2021/12/28 10:37:22;;;;;;;10.88;3.80;;;;;;;;;;21083132;28;20051;-72
2021/12/28 10:47:28;;;;;;;11.30;3.42;;;;;;;;;;21081974;28;20051;-73
2021/12/28 10:57:40;;;;;;;11.10;2.47;;;;;;;;;;21080001;28;20430;-59
2021/12/28 11:07:55;;;;;;;13.85;3.28;;;;;;;;;;21079394;28;20052;-56
2021/12/28 11:17:57;;;;;;;9.73;2.55;;;;;;;;;;21078850;28;20402;-59
2021/12/28 11:28:12;;;;;;;12.35;2.42;;;;;;;;;;21078918;28;20054;-61
2021/12/28 11:38:14;;;;;;;7.77;2.47;;;;;;;;;;21073664;28;20401;-61
2021/12/28 11:48:18;;;;;;;6.13;2.20;;;;;;;;;;21074783;28;20353;-55
2021/12/28 11:58:21;;;;;;;11.32;2.10;;;;;;;;;;21071402;28;20056;-53
2021/12/28 12:08:23;;;;;;;12.23;2.80;;;;;;;;;;21068821;28;20051;-58
2021/12/28 12:18:29;;;;;;;6.07;2.92;;;;;;;;;;21075828;28;20055;-63
2021/12/28 12:28:46;;;;;;;8.35;2.50;;;;;;;;;;21076402;28;20082;-65
2021/12/28 12:38:49;;;;;;;7.00;2.38;;;;;;;;;;21075152;28;20056;-65
2021/12/28 12:48:54;;;;;;;6.72;2.58;;;;;;;;;;21067805;28;20044;-57
2021/12/28 12:58:59;;;;;;;12.48;3.13;;;;;;;;;;21024173;28;20044;-62
2021/12/28 13:09:05;;;;;;;9.15;2.53;;;;;;;;;;21007085;28;20127;-59
2021/12/28 13:19:16;;;;;;;7.68;2.90;;;;;;;;;;21005479;28;20040;-59
2021/12/28 13:29:23;;;;;;;9.70;2.63;;;;;;;;;;21003216;28;20131;-64
2021/12/28 13:39:27;;;;;;;12.65;3.25;;;;;;;;;;21003275;28;20052;-56
2021/12/28 13:49:29;;;;;;;10.98;3.00;;;;;;;;;;21003283;28;20060;-57
2021/12/28 13:59:31;;;;;;;8.32;2.83;;;;;;;;;;21002495;28;20083;-56
2021/12/28 14:09:33;;;;;;;8.88;2.20;;;;;;;;;;21000772;28;20053;-54
2021/12/28 14:19:41;;;;;;;9.35;3.55;;;;;;;;;;21001453;28;20509;-64
2021/12/28 14:29:43;;;;;;;11.50;3.03;;;;;;;;;;21000387;28;20160;-67
2021/12/28 14:39:45;;;;;;;10.90;3.65;;;;;;;;;;21000077;28;20048;-66
2021/12/28 14:49:49;;;;;;;7.38;2.30;;;;;;;;;;20999233;28;20140;-63
2021/12/28 14:59:52;;;;;;;12.73;2.35;;;;;;;;;;20998670;28;20045;-65
2021/12/28 15:09:59;;;;;;;11.95;2.92;;;;;;;;;;20997281;28;20056;-61
2021/12/28 15:20:02;;;;;;;13.67;2.50;;;;;;;;;;20995724;28;20089;-66
2021/12/28 15:30:10;;;;;;;15.27;3.40;;;;;;;;;;20996552;28;20049;-68
2021/12/28 15:40:13;;;;;;;9.35;2.80;;;;;;;;;;20994753;28;20048;-61
2021/12/28 15:50:15;;;;;;;12.23;3.50;;;;;;;;;;20994726;28;20088;-68
2021/12/28 16:00:19;;;;;;;10.40;2.97;;;;;;;;;;20994211;28;20056;-61
2021/12/28 16:10:22;;;;;;;12.23;3.47;;;;;;;;;;20993853;28;20071;-63
2021/12/28 16:20:23;;;;;;;10.05;3.20;;;;;;;;;;20991625;28;20403;-62
2021/12/28 16:30:27;;;;;;;9.45;2.58;;;;;;;;;;21000813;28;20090;-65
2021/12/28 16:40:31;;;;;;;10.27;2.33;;;;;;;;;;21010542;28;20077;-62
2021/12/28 16:50:35;;;;;;;11.63;2.90;;;;;;;;;;21008051;28;20063;-61
2021/12/28 17:00:39;;;;;;;12.48;3.47;;;;;;;;;;21008699;28;20048;-62
2021/12/28 17:10:44;;;;;;;13.10;3.50;;;;;;;;;;21006879;28;20044;-67
2021/12/28 17:20:46;;;;;;;9.95;3.20;;;;;;;;;;21006262;28;20495;-68
2021/12/28 17:30:48;;;;;;;14.18;4.15;;;;;;;;;;21005877;28;20045;-65
2021/12/28 17:40:50;;;;;;;23.85;12.45;;;;;;;;;;21002459;28;20052;-62
2021/12/28 17:50:53;;;;;;;14.07;4.22;;;;;;;;;;21005588;28;20084;-66
2021/12/28 18:00:55;;;;;;;13.15;3.63;;;;;;;;;;21004255;28;20056;-67
2021/12/28 18:10:57;;;;;;;15.90;4.85;;;;;;;;;;21003122;28;20106;-63
2021/12/28 18:20:59;;;;;;;12.77;4.25;;;;;;;;;;21000892;28;20056;-62
2021/12/28 18:31:01;;;;;;;20.15;5.00;;;;;;;;;;21002886;28;20090;-63
2021/12/28 18:41:05;;;;;;;13.80;4.20;;;;;;;;;;20999814;28;20414;-61
2021/12/28 18:51:07;;;;;;;13.63;4.15;;;;;;;;;;20997965;28;20057;-64
2021/12/28 19:01:09;;;;;;;12.77;3.88;;;;;;;;;;20998249;28;20057;-67
2021/12/28 19:11:11;;;;;;;14.13;4.10;;;;;;;;;;20998310;28;20485;-66
2021/12/28 19:21:17;;;;;;;14.95;5.68;;;;;;;;;;20997728;28;20048;-64
2021/12/28 19:31:19;;;;;;;17.65;5.15;;;;;;;;;;20996703;28;20410;-64
2021/12/28 19:41:22;;;;;;;12.45;3.83;;;;;;;;;;20995889;28;20119;-64
2021/12/28 19:51:24;;;;;;;12.23;4.15;;;;;;;;;;20995183;28;20063;-63
2021/12/28 20:01:26;;;;;;;12.00;3.90;;;;;;;;;;20993796;28;20063;-67
2021/12/28 20:11:28;;;;;;;13.32;4.97;;;;;;;;;;20994979;28;20417;-61
2021/12/28 20:21:32;;;;;;;17.67;5.85;;;;;;;;;;20994319;28;20453;-63
2021/12/28 20:31:35;;;;;;;19.45;6.88;;;;;;;;;;20995085;28;20518;-67
2021/12/28 20:41:37;;;;;;;21.95;8.80;;;;;;;;;;20994542;28;20052;-63
2021/12/28 20:51:40;;;;;;;25.45;10.57;;;;;;;;;;20995667;28;20493;-68
2021/12/28 21:01:42;;;;;;;21.30;9.27;;;;;;;;;;20991986;28;20052;-67
2021/12/28 21:11:44;;;;;;;24.15;7.32;;;;;;;;;;20992176;28;20523;-64
2021/12/28 21:21:47;;;;;;;18.38;5.68;;;;;;;;;;21005134;28;20094;-68
2021/12/28 21:31:49;;;;;;;14.60;6.13;;;;;;;;;;21006421;28;20080;-66
2021/12/28 21:41:51;;;;;;;16.17;5.38;;;;;;;;;;21005590;28;20438;-72
2021/12/28 21:51:53;;;;;;;14.77;4.85;;;;;;;;;;21004413;28;20105;-65
2021/12/28 22:01:55;;;;;;;16.73;6.68;;;;;;;;;;21003490;28;20060;-66
2021/12/28 22:11:57;;;;;;;18.58;6.75;;;;;;;;;;21003526;28;20127;-67
2021/12/28 22:21:59;;;;;;;21.02;7.60;;;;;;;;;;21001617;28;20473;-70
2021/12/28 22:32:02;;;;;;;16.83;6.18;;;;;;;;;;21000357;28;20560;-68
2021/12/28 22:42:06;;;;;;;15.55;6.20;;;;;;;;;;21000373;28;20052;-69
2021/12/28 22:52:09;;;;;;;16.90;6.53;;;;;;;;;;20997760;28;20106;-70
2021/12/28 23:02:11;;;;;;;12.20;5.90;;;;;;;;;;20998633;28;20052;-68
2021/12/28 23:12:13;;;;;;;17.73;7.53;;;;;;;;;;20998045;28;20049;-66
2021/12/28 23:22:15;;;;;;;22.95;9.18;;;;;;;;;;20997107;28;20044;-70
2021/12/28 23:32:17;;;;;;;19.23;7.18;;;;;;;;;;20997388;28;20048;-66
2021/12/28 23:42:20;;;;;;;15.05;6.60;;;;;;;;;;20995784;28;20513;-63
2021/12/28 23:52:22;;;;;;;18.02;7.05;;;;;;;;;;20995416;28;20055;-60
